Portada
METAR-TAF:

METAR-TAF

Aeroports :

Vijayawada, Índia

latitud: 16-31-44N, longitud: 80-47-45E, altitud: 25 m

Observació

L'informe es va fer fa 14 minuts, a les 02:00 UTC
Vent calma
Temperatura 21°C
Humitat 94%
Pressió 1014 hPa
Visibilitat: 2000 m
boirina

METAR: VOBZ 060200Z 00000KT 2000 BR NSC 21/20 Q1014 BECMG 3000 HZ

Hora: 07:44 (02:14 UTC)

Pronòstic

L'informe es va fer fa 3 hores i 14 minuts, a les 23:00 UTC
Pronòstic vàlid del 06 a les 00 UTC al 06 a les 09 UTC
Vent 6 kt del Sud/Sud-Oest
Visibilitat: 1500 m
Núvols disperses a una alçada de 1500 ft
boirina
Temporalment
l' 06 a les 00 UTC al 06 a les 05 UTC
Vent kt del Nord
Visibilitat: 0800 m
Núvols disperses a una alçada de 800 ft
boira
Evolucionant progressivament
l' 06 a les 06 UTC al 06 a les 08 UTC
Vent 6 kt del Oest/Sud-Oest
Visibilitat: 3000 m
Escasses núvols a una alçada de 2000 ft
calitja

TAF: VOBZ 052300Z 0600/0609 21006KT 1500 BR SCT015 TEMPO 0600/0605 00000KT 0800 FG SCT008 BECMG 0606/0608 25006KT 3000 HZ FEW020

Observacions i pronòstics meteorològics de més de 4000 aeroports (METAR i TAF).

Les estacions disponibles són els punts grocs i vermells al mapa.

Posi el ratolí al punt desitjat per veure el nom de l'estació.

Feu clic per veure les observacions i els pronòstics meteorològics.

Per canviar el mapa: feu clic els botons verds amb una creu de color negre per apropar; al botó verd amb un guió per allunyar la imatge; o en les fletxes verdes per a mapes adjacents.


METAR-TAF: